createdAt,value
2018-02-24T00:00:50.982Z,17.10
2018-02-24T00:03:19.245Z,18.17
2018-02-24T00:05:46.770Z,17.93
2018-02-24T00:08:14.278Z,18.20
2018-02-24T00:10:41.804Z,18.40
2018-02-24T00:13:09.307Z,16.97
2018-02-24T00:15:36.811Z,17.17
2018-02-24T00:18:04.331Z,17.40
2018-02-24T00:20:31.831Z,17.87
2018-02-24T00:22:59.353Z,17.70
2018-02-24T00:25:26.858Z,19.63
2018-02-24T00:27:54.359Z,18.07
2018-02-24T00:30:21.882Z,18.47
2018-02-24T00:32:49.388Z,17.90
2018-02-24T00:35:17.185Z,19.17
2018-02-24T00:37:44.685Z,19.57
2018-02-24T00:40:12.186Z,18.63
2018-02-24T00:42:39.710Z,18.10
2018-02-24T00:45:07.214Z,16.90
2018-02-24T00:47:34.735Z,17.40
2018-02-24T00:50:02.238Z,17.00
2018-02-24T00:52:29.763Z,19.50
2018-02-24T00:54:57.258Z,18.87
2018-02-24T00:57:24.757Z,19.53
2018-02-24T00:59:53.101Z,19.20
2018-02-24T01:02:20.604Z,19.50
2018-02-24T01:04:48.129Z,19.30
2018-02-24T01:07:16.394Z,18.83
2018-02-24T01:09:43.894Z,19.50
2018-02-24T01:12:11.426Z,19.30
2018-02-24T01:14:39.694Z,19.03
2018-02-24T01:17:07.214Z,20.47
2018-02-24T01:19:34.718Z,19.20
2018-02-24T01:22:03.021Z,19.07
2018-02-24T01:24:30.530Z,20.27
2018-02-24T01:26:58.030Z,19.03
2018-02-24T01:29:25.553Z,19.83
2018-02-24T01:31:53.051Z,19.50
2018-02-24T01:34:20.570Z,19.27
2018-02-24T01:36:48.070Z,19.13
2018-02-24T01:39:15.590Z,20.10
2018-02-24T01:41:43.091Z,20.13
2018-02-24T01:44:10.594Z,18.83
2018-02-24T01:46:38.128Z,20.47
2018-02-24T01:49:05.625Z,21.00
2018-02-24T01:51:33.146Z,19.40
2018-02-24T01:54:00.650Z,20.00
2018-02-24T01:56:28.938Z,19.00
2018-02-24T01:58:57.205Z,19.70
2018-02-24T02:01:25.470Z,19.77
2018-02-24T02:03:52.985Z,20.47
2018-02-24T02:06:20.482Z,19.47
2018-02-24T02:08:48.002Z,20.53
2018-02-24T02:11:15.505Z,19.13
2018-02-24T02:13:43.033Z,21.00
2018-02-24T02:16:10.531Z,20.93
2018-02-24T02:18:38.051Z,19.20
2018-02-24T02:21:05.571Z,20.63
2018-02-24T02:23:33.070Z,22.70
2018-02-24T02:26:00.603Z,18.70
2018-02-24T02:28:28.102Z,19.83
2018-02-24T02:30:55.623Z,19.93
2018-02-24T02:33:23.122Z,19.43
2018-02-24T02:35:50.622Z,20.43
2018-02-24T02:38:18.148Z,20.40
2018-02-24T02:40:45.655Z,19.17
2018-02-24T02:43:13.183Z,19.93
2018-02-24T02:45:41.446Z,20.23
2018-02-24T02:48:08.969Z,20.70
2018-02-24T02:50:36.468Z,20.07
2018-02-24T02:53:04.734Z,20.73
2018-02-24T02:55:32.258Z,19.77
2018-02-24T02:57:59.761Z,19.90
2018-02-24T03:00:28.050Z,20.20
2018-02-24T03:02:56.329Z,21.60
2018-02-24T03:05:23.862Z,20.87
2018-02-24T03:07:52.143Z,21.53
2018-02-24T03:10:19.642Z,21.87
2018-02-24T03:12:47.171Z,20.90
2018-02-24T03:15:15.433Z,21.10
2018-02-24T03:17:42.950Z,21.20
2018-02-24T03:20:10.450Z,21.63
2018-02-24T03:22:37.981Z,21.10
2018-02-24T03:25:05.482Z,20.97
2018-02-24T03:27:33.748Z,22.03
2018-02-24T03:30:01.270Z,22.40
2018-02-24T03:32:28.772Z,22.33
2018-02-24T03:34:57.063Z,23.07
2018-02-24T03:37:24.562Z,20.73
2018-02-24T03:39:52.582Z,22.30
2018-02-24T03:42:20.846Z,22.60
2018-02-24T03:44:48.346Z,21.60
2018-02-24T03:47:15.870Z,23.90
2018-02-24T03:49:43.375Z,22.73
2018-02-24T03:52:10.898Z,23.40
2018-02-24T03:54:39.162Z,22.23
2018-02-24T03:57:07.451Z,23.63
2018-02-24T03:59:35.722Z,22.20
2018-02-24T04:02:03.989Z,21.90
2018-02-24T04:04:32.279Z,22.57
2018-02-24T04:06:59.791Z,22.93
2018-02-24T04:09:27.315Z,22.83
2018-02-24T04:11:54.818Z,23.90
2018-02-24T04:14:22.337Z,23.67
2018-02-24T04:16:49.838Z,22.63
2018-02-24T04:19:17.338Z,22.70
2018-02-24T04:21:44.858Z,23.17
2018-02-24T04:24:12.354Z,22.57
2018-02-24T04:26:39.881Z,22.30
2018-02-24T04:29:07.374Z,23.57
2018-02-24T04:31:34.894Z,22.40
2018-02-24T04:34:02.394Z,21.43
2018-02-24T04:36:29.894Z,21.30
2018-02-24T04:38:57.415Z,21.90
2018-02-24T04:41:24.917Z,22.60
2018-02-24T04:43:52.438Z,24.43
2018-02-24T04:46:19.942Z,23.50
2018-02-24T04:48:47.466Z,21.77
2018-02-24T04:51:14.969Z,22.30
2018-02-24T04:53:42.469Z,21.13
2018-02-24T04:56:09.990Z,23.10
2018-02-24T04:58:37.490Z,24.57
2018-02-24T05:01:05.014Z,24.00
2018-02-24T05:03:33.279Z,22.23
2018-02-24T05:06:00.809Z,23.33
2018-02-24T05:08:28.310Z,21.47
2018-02-24T05:10:56.575Z,23.33
2018-02-24T05:13:24.096Z,22.40
2018-02-24T05:15:51.593Z,21.80
2018-02-24T05:18:19.886Z,21.90
2018-02-24T05:20:48.150Z,24.07
2018-02-24T05:23:16.443Z,23.10
2018-02-24T05:25:43.943Z,23.47
2018-02-24T05:28:11.445Z,23.00
2018-02-24T05:30:38.983Z,22.83
2018-02-24T05:33:06.486Z,23.07
2018-02-24T05:35:34.007Z,23.33
2018-02-24T05:38:01.508Z,23.77
2018-02-24T05:40:29.038Z,24.30
2018-02-24T05:42:56.538Z,25.60
2018-02-24T05:45:24.039Z,24.20
2018-02-24T05:47:51.561Z,23.43
2018-02-24T05:50:19.063Z,21.97
2018-02-24T05:52:47.349Z,23.70
2018-02-24T05:55:14.850Z,24.10
2018-02-24T05:57:42.374Z,23.00
2018-02-24T06:00:10.647Z,22.90
2018-02-24T06:02:38.146Z,24.30
2018-02-24T06:05:05.665Z,23.30
2018-02-24T06:07:33.933Z,23.07
2018-02-24T06:10:01.470Z,21.60
2018-02-24T06:12:28.971Z,22.60
2018-02-24T06:14:56.493Z,23.10
2018-02-24T06:17:23.989Z,24.00
2018-02-24T06:19:51.486Z,24.10
2018-02-24T06:22:19.006Z,24.50
2018-02-24T06:24:46.506Z,23.63
2018-02-24T06:27:14.027Z,23.00
2018-02-24T06:29:41.531Z,23.80
2018-02-24T06:32:09.058Z,24.27
2018-02-24T06:34:36.558Z,24.37
2018-02-24T06:37:04.057Z,24.33
2018-02-24T06:39:31.582Z,24.00
2018-02-24T06:41:59.087Z,28.60
2018-02-24T06:44:26.615Z,23.50
2018-02-24T06:46:54.881Z,24.27
2018-02-24T06:49:22.406Z,24.80
2018-02-24T06:51:49.908Z,25.00
2018-02-24T06:54:18.178Z,24.47
2018-02-24T06:56:46.466Z,24.60
2018-02-24T06:59:13.975Z,24.20
2018-02-24T07:01:41.498Z,25.47
2018-02-24T07:04:09.002Z,23.40
2018-02-24T07:06:36.541Z,23.37
2018-02-24T07:09:04.059Z,24.40
2018-02-24T07:11:32.326Z,22.40
2018-02-24T07:14:00.615Z,24.63
2018-02-24T07:16:28.118Z,24.40
2018-02-24T07:18:55.643Z,23.80
2018-02-24T07:21:23.142Z,23.77
2018-02-24T07:23:50.666Z,24.73
2018-02-24T07:26:18.173Z,25.20
2018-02-24T07:28:45.674Z,23.83
2018-02-24T07:31:13.202Z,23.30
2018-02-24T07:33:41.469Z,23.43
2018-02-24T07:36:08.995Z,23.77
2018-02-24T07:38:36.494Z,23.17
2018-02-24T07:41:04.018Z,23.90
2018-02-24T07:43:31.518Z,23.03
2018-02-24T07:45:59.787Z,24.00
2018-02-24T07:48:28.082Z,22.50
2018-02-24T07:50:56.349Z,25.07
2018-02-24T07:53:24.637Z,22.80
2018-02-24T07:55:52.906Z,21.10
2018-02-24T07:58:20.430Z,22.03
2018-02-24T08:00:48.698Z,22.67
2018-02-24T08:03:16.197Z,21.40
2018-02-24T08:05:44.490Z,20.93
2018-02-24T08:08:12.007Z,21.20
2018-02-24T08:10:39.534Z,22.30
2018-02-24T08:13:07.043Z,21.63
2018-02-24T08:15:35.338Z,21.33
2018-02-24T08:18:02.842Z,21.47
2018-02-24T08:20:30.342Z,21.70
2018-02-24T08:22:58.631Z,21.60
2018-02-24T08:25:26.142Z,21.30
2018-02-24T08:27:54.430Z,22.73
2018-02-24T08:30:21.940Z,22.60
2018-02-24T08:32:49.511Z,20.20
2018-02-24T08:35:16.990Z,19.67
2018-02-24T08:37:44.494Z,20.47
2018-02-24T08:40:12.781Z,19.93
2018-02-24T08:42:40.282Z,19.20
2018-02-24T08:45:07.801Z,19.83
2018-02-24T08:47:35.302Z,20.60
2018-02-24T08:50:02.828Z,20.07
2018-02-24T08:52:30.329Z,18.60
2018-02-24T08:54:57.839Z,19.83
2018-02-24T08:57:25.365Z,19.30
2018-02-24T08:59:53.642Z,19.40
2018-02-24T09:02:21.934Z,18.47
2018-02-24T09:04:49.434Z,18.00
2018-02-24T09:07:16.963Z,18.53
2018-02-24T09:09:44.462Z,20.43
2018-02-24T09:12:11.962Z,20.00
2018-02-24T09:14:40.250Z,21.20
2018-02-24T09:17:07.750Z,21.10
2018-02-24T09:19:35.274Z,21.67
2018-02-24T09:22:02.783Z,20.90
2018-02-24T09:24:30.310Z,23.07
2018-02-24T09:26:57.816Z,22.30
2018-02-24T09:29:25.317Z,23.43
2018-02-24T09:31:52.842Z,24.40
2018-02-24T09:34:21.250Z,22.63
2018-02-24T09:36:48.774Z,22.80
2018-02-24T09:39:17.050Z,22.30
2018-02-24T09:41:44.582Z,20.83
2018-02-24T09:44:12.085Z,22.27
2018-02-24T09:46:40.349Z,22.57
2018-02-24T09:49:08.646Z,21.17
2018-02-24T09:51:36.145Z,20.80
2018-02-24T09:54:03.670Z,20.80
2018-02-24T09:56:31.174Z,21.47
2018-02-24T09:58:58.718Z,20.97
2018-02-24T10:01:26.238Z,20.77
2018-02-24T10:03:53.737Z,21.17
2018-02-24T10:06:21.262Z,20.47
2018-02-24T10:08:48.779Z,20.20
2018-02-24T10:11:16.310Z,19.60
2018-02-24T10:13:43.814Z,20.47
2018-02-24T10:16:11.342Z,20.13
2018-02-24T10:18:38.847Z,19.50
2018-02-24T10:21:06.354Z,20.43
2018-02-24T10:23:33.879Z,20.17
2018-02-24T10:26:01.383Z,19.20
2018-02-24T10:28:28.911Z,18.90
2018-02-24T10:30:56.415Z,19.27
2018-02-24T10:33:24.711Z,19.07
2018-02-24T10:35:52.978Z,19.70
2018-02-24T10:38:21.262Z,17.67
2018-02-24T10:40:49.531Z,18.77
2018-02-24T10:43:17.823Z,17.13
2018-02-24T10:45:45.363Z,18.30
2018-02-24T10:48:13.639Z,16.70
2018-02-24T10:50:41.938Z,15.90
2018-02-24T10:53:09.454Z,15.70
2018-02-24T10:55:36.983Z,16.10
2018-02-24T10:58:04.485Z,16.60
2018-02-24T11:00:32.779Z,16.53
2018-02-24T11:03:01.071Z,16.43
2018-02-24T11:05:29.327Z,16.37
2018-02-24T11:07:57.618Z,15.83
2018-02-24T11:10:25.123Z,15.90
2018-02-24T11:12:52.671Z,15.30
2018-02-24T11:15:20.174Z,15.77
2018-02-24T11:17:48.477Z,15.47
2018-02-24T11:20:15.990Z,14.57
2018-02-24T11:22:43.507Z,15.37
2018-02-24T11:25:11.032Z,14.20
2018-02-24T11:27:39.304Z,14.17
2018-02-24T11:30:07.589Z,13.80
2018-02-24T11:32:35.866Z,13.90
2018-02-24T11:35:04.159Z,13.50
2018-02-24T11:37:31.662Z,13.53
2018-02-24T11:39:59.204Z,12.67
2018-02-24T11:42:26.710Z,12.87
2018-02-24T11:44:55.002Z,11.63
2018-02-24T11:47:22.502Z,11.53
2018-02-24T11:49:50.003Z,11.50
2018-02-24T11:52:18.301Z,11.27
2018-02-24T11:54:45.802Z,11.83
2018-02-24T11:57:13.326Z,10.83
2018-02-24T11:59:40.826Z,11.03
2018-02-24T12:02:08.354Z,11.27
2018-02-24T12:04:35.854Z,11.33
2018-02-24T12:07:03.379Z,11.07
2018-02-24T12:09:30.887Z,10.80
2018-02-24T12:11:59.158Z,10.60
2018-02-24T12:14:26.682Z,11.73
2018-02-24T12:16:54.191Z,11.20
2018-02-24T12:19:22.483Z,11.20
2018-02-24T12:21:49.990Z,11.67
2018-02-24T12:24:17.518Z,12.17
2018-02-24T12:26:45.020Z,11.77
2018-02-24T12:29:12.531Z,11.63
2018-02-24T12:31:40.054Z,10.77
2018-02-24T12:34:08.317Z,11.17
2018-02-24T12:36:35.843Z,11.20
2018-02-24T12:39:03.349Z,11.67
2018-02-24T12:41:31.633Z,8.43
2018-02-24T12:43:59.899Z,8.80
2018-02-24T12:46:28.162Z,7.60
2018-02-24T12:48:55.695Z,9.37
2018-02-24T12:51:23.202Z,7.60
2018-02-24T12:53:51.491Z,8.17
2018-02-24T12:56:18.986Z,7.20
2018-02-24T12:58:46.512Z,7.30
2018-02-24T13:01:14.015Z,6.87
2018-02-24T13:03:41.510Z,7.33
2018-02-24T13:06:09.791Z,6.53
2018-02-24T13:08:38.054Z,6.73
2018-02-24T13:11:06.343Z,7.00
2018-02-24T13:13:34.626Z,6.47
2018-02-24T13:16:02.150Z,7.10
2018-02-24T13:18:29.646Z,7.40
2018-02-24T13:20:57.146Z,6.90
2018-02-24T13:23:25.433Z,7.60
2018-02-24T13:25:52.928Z,7.00
2018-02-24T13:28:21.206Z,7.33
2018-02-24T13:30:49.467Z,7.70
2018-02-24T13:33:17.742Z,7.30
2018-02-24T13:35:46.011Z,7.67
2018-02-24T13:38:13.571Z,7.10
2018-02-24T13:40:41.066Z,7.67
2018-02-24T13:43:08.563Z,8.63
2018-02-24T13:45:36.847Z,7.80
2018-02-24T13:48:04.350Z,7.90
2018-02-24T13:50:31.871Z,7.40
2018-02-24T13:52:59.362Z,8.67
2018-02-24T13:55:27.650Z,8.10
2018-02-24T13:57:55.150Z,9.10
2018-02-24T14:00:22.642Z,8.70
2018-02-24T14:02:50.942Z,9.00
2018-02-24T14:05:18.451Z,8.93
2018-02-24T14:07:45.979Z,9.67
2018-02-24T14:10:13.532Z,9.50
2018-02-24T14:12:41.046Z,9.97
2018-02-24T14:15:08.550Z,10.67
2018-02-24T14:17:36.051Z,10.37
2018-02-24T14:20:03.566Z,9.83
2018-02-24T14:22:31.092Z,10.40
2018-02-24T14:24:59.370Z,10.50
2018-02-24T14:27:27.633Z,11.20
2018-02-24T14:29:55.158Z,10.80
2018-02-24T14:32:22.668Z,10.10
2018-02-24T14:34:50.936Z,11.33
2018-02-24T14:37:19.228Z,10.00
2018-02-24T14:39:47.491Z,10.43
2018-02-24T14:42:15.779Z,11.47
2018-02-24T14:44:43.278Z,10.47
2018-02-24T14:47:10.802Z,10.60
2018-02-24T14:49:38.302Z,10.17
2018-02-24T14:52:05.798Z,11.00
2018-02-24T14:54:34.083Z,9.97
2018-02-24T14:57:01.574Z,10.20
2018-02-24T14:59:29.099Z,10.07
2018-02-24T15:01:57.359Z,9.77
2018-02-24T15:04:24.879Z,11.00
2018-02-24T15:06:52.379Z,10.20
2018-02-24T15:09:20.651Z,11.07
2018-02-24T15:11:48.167Z,10.43
2018-02-24T15:14:15.658Z,9.07
2018-02-24T15:16:43.173Z,8.80
2018-02-24T15:19:10.675Z,10.10
2018-02-24T15:21:38.190Z,10.83
2018-02-24T15:24:05.686Z,10.30
2018-02-24T15:26:33.182Z,9.10
2018-02-24T15:29:01.466Z,11.40
2018-02-24T15:31:28.970Z,8.90
2018-02-24T15:33:57.259Z,9.17
2018-02-24T15:36:24.754Z,9.77
2018-02-24T15:38:53.038Z,8.20
2018-02-24T15:41:20.535Z,9.47
2018-02-24T15:43:48.034Z,9.63
2018-02-24T15:46:15.555Z,8.00
2018-02-24T15:48:43.050Z,8.40
2018-02-24T15:51:11.422Z,8.20
2018-02-24T15:53:39.686Z,8.53
2018-02-24T15:56:07.198Z,8.80
2018-02-24T15:58:34.699Z,8.20
2018-02-24T16:01:02.213Z,7.30
2018-02-24T16:03:29.707Z,6.90
2018-02-24T16:05:57.196Z,6.33
2018-02-24T16:08:25.473Z,6.13
2018-02-24T16:10:53.735Z,7.20
2018-02-24T16:13:21.251Z,6.73
2018-02-24T16:15:48.738Z,6.57
2018-02-24T16:18:16.278Z,6.53
2018-02-24T16:20:43.775Z,6.00
2018-02-24T16:23:11.265Z,6.40
2018-02-24T16:25:38.789Z,6.63
2018-02-24T16:28:06.287Z,7.63
2018-02-24T16:30:33.802Z,7.33
2018-02-24T16:33:01.299Z,9.10
2018-02-24T16:35:28.815Z,6.90
2018-02-24T16:37:56.302Z,6.87
2018-02-24T16:40:24.582Z,6.90
2018-02-24T16:42:52.837Z,7.10
2018-02-24T16:45:20.344Z,7.63
2018-02-24T16:47:47.862Z,7.87
2018-02-24T16:50:16.131Z,7.90
2018-02-24T16:52:43.659Z,10.00
2018-02-24T16:55:11.159Z,7.30
2018-02-24T16:57:39.443Z,9.17
2018-02-24T17:00:07.758Z,8.10
2018-02-24T17:02:35.242Z,6.90
2018-02-24T17:05:02.730Z,6.47
2018-02-24T17:07:30.985Z,6.17
2018-02-24T17:09:58.506Z,6.30
2018-02-24T17:12:25.994Z,6.27
2018-02-24T17:14:53.510Z,6.13
2018-02-24T17:17:21.002Z,6.50
2018-02-24T17:19:48.526Z,6.13
2018-02-24T17:22:16.014Z,6.00
2018-02-24T17:24:43.510Z,6.47
2018-02-24T17:27:11.790Z,6.47
2018-02-24T17:29:40.081Z,6.43
2018-02-24T17:32:07.574Z,5.53
2018-02-24T17:34:35.062Z,5.20
2018-02-24T17:37:02.579Z,5.60
2018-02-24T17:39:30.069Z,5.03
2018-02-24T17:41:57.558Z,4.77
2018-02-24T17:44:25.840Z,4.90
2018-02-24T17:46:54.094Z,4.47
2018-02-24T17:49:21.610Z,4.80
2018-02-24T17:51:49.107Z,4.90
2018-02-24T17:54:16.622Z,4.07
2018-02-24T17:56:44.118Z,3.60
2018-02-24T17:59:11.611Z,3.13
2018-02-24T18:01:39.895Z,4.20
2018-02-24T18:04:07.386Z,3.20
2018-02-24T18:06:34.898Z,3.07
2018-02-24T18:09:03.159Z,3.00
2018-02-24T18:11:30.679Z,3.03
2018-02-24T18:13:58.173Z,3.30
2018-02-24T18:16:25.663Z,3.27
2018-02-24T18:18:53.174Z,2.60
2018-02-24T18:21:20.662Z,3.00
2018-02-24T18:23:48.942Z,3.43
2018-02-24T18:26:17.223Z,2.87
2018-02-24T18:28:45.506Z,2.73
2018-02-24T18:31:13.000Z,3.10
2018-02-24T18:33:40.494Z,3.00
2018-02-24T18:36:08.019Z,2.87
2018-02-24T18:38:35.526Z,2.83
2018-02-24T18:41:03.815Z,3.10
2018-02-24T18:43:31.306Z,2.90
2018-02-24T18:45:58.827Z,2.63
2018-02-24T18:48:27.090Z,2.47
2018-02-24T18:50:55.400Z,3.20
2018-02-24T18:53:23.646Z,3.10
2018-02-24T18:55:51.911Z,3.20
2018-02-24T18:58:19.429Z,3.00
2018-02-24T19:00:46.927Z,2.77
2018-02-24T19:03:14.443Z,3.50
2018-02-24T19:05:41.939Z,2.80
2018-02-24T19:08:09.459Z,2.90
2018-02-24T19:10:36.965Z,2.97
2018-02-24T19:13:05.235Z,2.87
2018-02-24T19:15:32.750Z,2.77
2018-02-24T19:18:00.251Z,2.80
2018-02-24T19:20:27.778Z,3.30
2018-02-24T19:22:55.275Z,3.20
2018-02-24T19:25:23.563Z,4.10
2018-02-24T19:27:51.826Z,3.03
2018-02-24T19:30:19.326Z,2.63
2018-02-24T19:32:46.842Z,3.00
2018-02-24T19:35:14.342Z,3.30
2018-02-24T19:37:41.863Z,3.20
2018-02-24T19:40:10.119Z,3.60
2018-02-24T19:42:37.639Z,3.73
2018-02-24T19:45:05.135Z,3.70
2018-02-24T19:47:32.630Z,3.67
2018-02-24T19:50:00.158Z,3.70
2018-02-24T19:52:27.654Z,3.37
2018-02-24T19:54:55.169Z,3.20
2018-02-24T19:57:22.662Z,3.30
2018-02-24T19:59:50.951Z,3.80
2018-02-24T20:02:18.442Z,4.27
2018-02-24T20:04:45.962Z,4.00
2018-02-24T20:07:13.462Z,3.43
2018-02-24T20:09:40.953Z,3.67
2018-02-24T20:12:08.470Z,3.70
2018-02-24T20:14:35.966Z,3.67
2018-02-24T20:17:03.490Z,3.80
2018-02-24T20:19:30.982Z,3.77
2018-02-24T20:21:58.511Z,4.30
2018-02-24T20:24:26.004Z,3.90
2018-02-24T20:26:53.502Z,3.40
2018-02-24T20:29:21.018Z,3.50
2018-02-24T20:31:48.514Z,3.70
2018-02-24T20:34:16.030Z,3.67
2018-02-24T20:36:43.527Z,3.80
2018-02-24T20:39:11.042Z,3.87
2018-02-24T20:41:38.534Z,3.43
2018-02-24T20:44:06.795Z,3.93
2018-02-24T20:46:35.083Z,4.10
2018-02-24T20:49:03.347Z,3.53
2018-02-24T20:51:31.630Z,3.80
2018-02-24T20:53:59.890Z,3.67
2018-02-24T20:56:27.406Z,3.57
2018-02-24T20:58:54.907Z,4.10
2018-02-24T21:01:22.408Z,3.47
2018-02-24T21:03:49.938Z,3.53
2018-02-24T21:06:18.204Z,3.80
2018-02-24T21:08:46.491Z,3.87
2018-02-24T21:11:14.763Z,3.77
2018-02-24T21:13:43.046Z,4.17
2018-02-24T21:16:11.310Z,4.00
2018-02-24T21:18:39.579Z,4.00
2018-02-24T21:21:07.098Z,3.90
2018-02-24T21:23:34.598Z,3.87
2018-02-24T21:26:02.119Z,4.10
2018-02-24T21:28:29.618Z,3.93
2018-02-24T21:30:57.138Z,4.07
2018-02-24T21:33:24.639Z,4.00
2018-02-24T21:35:52.907Z,4.53
2018-02-24T21:38:20.427Z,3.80
2018-02-24T21:40:47.929Z,4.80
2018-02-24T21:43:16.214Z,3.87
2018-02-24T21:45:44.482Z,3.90
2018-02-24T21:48:12.770Z,4.67
2018-02-24T21:50:41.034Z,3.60
2018-02-24T21:53:09.323Z,4.63
2018-02-24T21:55:36.831Z,4.87
2018-02-24T21:58:04.323Z,5.10
2018-02-24T22:00:31.847Z,4.43
2018-02-24T22:02:59.342Z,4.53
2018-02-24T22:05:26.866Z,4.97
2018-02-24T22:07:54.362Z,5.03
2018-02-24T22:10:22.647Z,4.50
2018-02-24T22:12:50.910Z,5.03
2018-02-24T22:15:18.409Z,5.10
2018-02-24T22:17:45.925Z,4.87
2018-02-24T22:20:13.428Z,4.97
2018-02-24T22:22:40.950Z,4.83
2018-02-24T22:25:09.215Z,4.43
2018-02-24T22:27:36.734Z,4.80
2018-02-24T22:30:04.232Z,5.33
2018-02-24T22:32:31.754Z,5.10
2018-02-24T22:34:59.246Z,5.07
2018-02-24T22:37:26.743Z,4.90
2018-02-24T22:39:54.258Z,5.93
2018-02-24T22:42:21.758Z,4.53
2018-02-24T22:44:49.282Z,4.60
2018-02-24T22:47:16.778Z,4.60
2018-02-24T22:49:44.298Z,5.23
2018-02-24T22:52:11.799Z,5.30
2018-02-24T22:54:39.303Z,4.80
2018-02-24T22:57:06.823Z,5.13
2018-02-24T22:59:34.322Z,4.17
2018-02-24T23:02:01.839Z,4.83
2018-02-24T23:04:29.337Z,6.47
2018-02-24T23:06:56.860Z,5.30
2018-02-24T23:09:24.366Z,5.10
2018-02-24T23:11:51.864Z,5.03
2018-02-24T23:14:19.387Z,5.23
2018-02-24T23:16:46.882Z,5.07
2018-02-24T23:19:14.402Z,5.27
2018-02-24T23:21:41.904Z,5.07
2018-02-24T23:24:09.402Z,5.10
2018-02-24T23:26:36.914Z,5.00
2018-02-24T23:29:04.405Z,4.97
2018-02-24T23:31:31.930Z,5.23
2018-02-24T23:33:59.426Z,5.90
2018-02-24T23:36:26.922Z,5.30
2018-02-24T23:38:55.205Z,4.87
2018-02-24T23:41:23.470Z,4.70
2018-02-24T23:43:51.761Z,5.90
2018-02-24T23:46:20.028Z,6.03
2018-02-24T23:48:47.531Z,6.13
2018-02-24T23:51:15.051Z,5.73
2018-02-24T23:53:43.343Z,4.90
2018-02-24T23:56:10.875Z,7.60
2018-02-24T23:58:39.139Z,6.87
